Time;durP1;ratioP1;P1;durP2;ratioP2;P2;SDS_P1;SDS_P2;PMS_P1;PMS_P2;Temp;Humidity;BMP_temperature;BMP_pressure;BME280_temperature;BME280_humidity;BME280_pressure;Samples;Min_cycle;Max_cycle;Signal;HPM_P1;HPM_P2
2021/11/22 00:02:12;;;;;;;1.70;1.20;;;;;;;-0.81;85.85;101030.88;4966175;29;20042;-74
2021/11/22 00:04:38;;;;;;;2.63;1.10;;;;;;;-0.82;85.80;101024.03;4966147;29;20031;-74
2021/11/22 00:07:03;;;;;;;2.00;1.00;;;;;;;-0.95;86.04;101014.91;4966119;29;20046;-73
2021/11/22 00:09:29;;;;;;;3.78;1.08;;;;;;;-0.88;86.14;101024.59;4965878;29;20416;-74
2021/11/22 00:11:54;;;;;;;1.48;1.00;;;;;;;-0.88;86.08;101033.94;4965811;29;20058;-74
2021/11/22 00:14:20;;;;;;;1.17;0.80;;;;;;;-0.91;86.03;101031.25;4980998;28;20065;-74
2021/11/22 00:16:45;;;;;;;4.40;1.10;;;;;;;-1.02;86.21;101015.41;4948433;29;20051;-74
2021/11/22 00:19:11;;;;;;;6.80;1.00;;;;;;;-1.02;86.14;101021.38;4966356;29;20031;-74
2021/11/22 00:21:36;;;;;;;2.70;1.10;;;;;;;-0.95;86.13;101042.06;4966052;29;20035;-74
2021/11/22 00:24:02;;;;;;;3.60;1.33;;;;;;;-1.07;86.13;101033.00;4948462;29;20023;-74
2021/11/22 00:26:27;;;;;;;3.05;0.90;;;;;;;-0.99;86.19;101048.69;4965817;29;20030;-73
2021/11/22 00:28:53;;;;;;;5.72;1.30;;;;;;;-1.01;86.28;101053.72;4965592;29;20023;-74
2021/11/22 00:31:18;;;;;;;2.60;1.15;;;;;;;-1.06;86.42;101050.09;4965773;29;20027;-73
2021/11/22 00:33:45;;;;;;;2.03;1.00;;;;;;;-1.17;86.43;101041.03;4964732;29;20046;-73
2021/11/22 00:36:11;;;;;;;2.53;1.20;;;;;;;-1.13;86.28;101053.09;4964690;29;20027;-73
2021/11/22 00:38:36;;;;;;;2.85;0.90;;;;;;;-1.26;86.17;101043.97;4963103;29;20079;-73
2021/11/22 00:41:02;;;;;;;1.10;0.75;;;;;;;-1.28;86.21;101043.88;4965617;29;20027;-74
2021/11/22 00:43:28;;;;;;;3.95;1.58;;;;;;;-1.21;86.20;101064.56;4965695;29;20275;-73
2021/11/22 00:45:54;;;;;;;6.10;1.48;;;;;;;-1.22;86.07;101068.81;4965187;28;20088;-72
2021/11/22 00:48:21;;;;;;;3.28;1.30;;;;;;;-1.42;85.98;101042.34;4965603;29;20027;-72
2021/11/22 00:50:52;;;;;;;1.85;1.20;;;;;;;-1.26;86.10;101072.00;4948451;29;20098;-72
2021/11/22 00:53:18;;;;;;;1.38;0.85;;;;;;;-1.26;86.24;101070.31;4965672;29;20027;-73
2021/11/22 00:55:43;;;;;;;1.70;1.00;;;;;;;-1.23;86.45;101071.28;4965276;29;20091;-73
2021/11/22 00:58:09;;;;;;;2.08;1.10;;;;;;;-1.23;86.53;101066.19;4965052;29;20026;-73
2021/11/22 01:00:35;;;;;;;2.63;1.17;;;;;;;-1.22;86.50;101066.28;4965387;29;20035;-73
2021/11/22 01:03:00;;;;;;;2.45;0.80;;;;;;;-1.29;86.44;101056.56;4947911;29;20038;-72
2021/11/22 01:05:26;;;;;;;1.98;1.10;;;;;;;-1.20;86.67;101081.63;4965358;29;20039;-74
2021/11/22 01:07:52;;;;;;;1.65;1.13;;;;;;;-1.35;86.55;101059.69;4965163;29;20087;-73
2021/11/22 01:10:18;;;;;;;3.00;1.42;;;;;;;-1.25;86.65;101077.16;4965398;29;20091;-72
2021/11/22 01:12:44;;;;;;;2.42;0.95;;;;;;;-1.23;86.75;101077.25;4965125;29;20034;-73
2021/11/22 01:15:14;;;;;;;0.95;0.82;;;;;;;-1.23;86.75;101073.84;4965450;29;20086;-73
2021/11/22 01:17:41;;;;;;;2.72;1.10;;;;;;;-1.26;86.71;101077.97;4965734;29;20067;-72
2021/11/22 01:20:09;;;;;;;3.38;1.10;;;;;;;-1.23;86.97;101086.56;4947946;29;20054;-73
2021/11/22 01:22:34;;;;;;;2.30;1.00;;;;;;;-1.24;86.69;101080.59;4965048;29;20034;-72
2021/11/22 01:25:00;;;;;;;3.75;1.20;;;;;;;-1.27;86.70;101077.91;4965189;29;20031;-74
2021/11/22 01:27:25;;;;;;;2.20;1.17;;;;;;;-1.38;86.74;101062.06;4965096;29;20079;-73
2021/11/22 01:29:51;;;;;;;3.05;0.98;;;;;;;-1.32;86.71;101076.78;4963650;29;20024;-74
2021/11/22 01:32:16;;;;;;;3.33;1.20;;;;;;;-1.30;86.77;101076.06;4964874;29;20055;-74
2021/11/22 01:34:42;;;;;;;2.50;0.88;;;;;;;-1.30;86.80;101080.28;4964688;29;20050;-74
2021/11/22 01:37:07;;;;;;;2.35;1.13;;;;;;;-1.32;86.87;101085.31;4964696;29;20279;-73
2021/11/22 01:39:32;;;;;;;2.47;1.20;;;;;;;-1.35;86.87;101084.25;4964686;29;20023;-74
2021/11/22 01:41:58;;;;;;;3.22;1.38;;;;;;;-1.38;86.75;101088.44;4979413;28;20488;-74
2021/11/22 01:44:23;;;;;;;3.13;1.38;;;;;;;-1.39;86.57;101084.09;4964737;29;20035;-73
2021/11/22 01:46:49;;;;;;;3.28;0.98;;;;;;;-1.48;86.76;101076.00;4964976;29;20051;-75
2021/11/22 01:49:19;;;;;;;2.95;1.33;;;;;;;-1.44;86.69;101084.69;4964935;29;20023;-73
2021/11/22 01:51:45;;;;;;;4.65;0.90;;;;;;;-1.44;86.65;101092.31;4964819;29;20027;-74
2021/11/22 01:54:12;;;;;;;2.22;1.13;;;;;;;-1.45;86.71;101090.59;4964470;29;20028;-73
2021/11/22 01:56:38;;;;;;;1.75;1.30;;;;;;;-1.63;86.52;101061.66;4964914;28;20087;-74
2021/11/22 01:59:03;;;;;;;2.90;1.40;;;;;;;-1.51;86.62;101089.47;4968415;29;20468;-73
2021/11/22 02:01:28;;;;;;;2.05;1.20;;;;;;;-1.61;86.49;101079.56;4968461;29;20030;-74
2021/11/22 02:03:54;;;;;;;1.27;0.95;;;;;;;-1.55;86.64;101091.75;4966668;29;20144;-73
2021/11/22 02:06:19;;;;;;;2.45;1.05;;;;;;;-1.68;86.59;101072.41;4983371;28;20051;-73
2021/11/22 02:08:45;;;;;;;3.88;1.15;;;;;;;-1.57;86.81;101095.91;4968132;29;20023;-73
2021/11/22 02:11:12;;;;;;;3.83;1.30;;;;;;;-1.56;86.71;101100.19;4968056;29;20031;-74
2021/11/22 02:13:39;;;;;;;2.13;1.08;;;;;;;-1.60;86.85;101093.19;4968262;29;20106;-74
2021/11/22 02:16:04;;;;;;;2.75;1.23;;;;;;;-1.62;86.71;101095.66;4968307;29;20031;-74
2021/11/22 02:18:30;;;;;;;3.92;1.40;;;;;;;-1.63;86.79;101101.56;4967714;29;20118;-74
2021/11/22 02:20:55;;;;;;;1.35;1.00;;;;;;;-1.68;86.81;101095.34;4968117;29;20023;-74
2021/11/22 02:23:21;;;;;;;2.60;1.25;;;;;;;-1.66;86.82;101097.16;4967809;29;20042;-75
2021/11/22 02:25:46;;;;;;;3.42;1.23;;;;;;;-1.73;86.96;101084.03;4967954;29;20031;-73
2021/11/22 02:28:13;;;;;;;2.85;1.10;;;;;;;-1.64;86.90;101095.56;4967749;29;20023;-73
2021/11/22 02:30:43;;;;;;;2.83;1.10;;;;;;;-1.65;87.07;101098.03;4967508;29;20019;-73
2021/11/22 02:33:11;;;;;;;1.77;0.93;;;;;;;-1.65;87.02;101098.03;4967782;29;20102;-74
2021/11/22 02:35:44;;;;;;;1.95;1.00;;;;;;;-1.64;87.08;101092.13;4967735;29;20031;-74
2021/11/22 02:38:09;;;;;;;3.63;1.40;;;;;;;-1.75;87.00;101066.13;4967476;29;20038;-74
2021/11/22 02:40:35;;;;;;;3.78;1.10;;;;;;;-1.65;87.13;101092.94;4967772;29;20058;-74
2021/11/22 02:43:00;;;;;;;3.95;1.30;;;;;;;-1.62;87.13;101098.19;4967525;29;20542;-74
2021/11/22 02:45:26;;;;;;;2.65;1.30;;;;;;;-1.61;87.15;101099.94;4967691;29;20135;-74
2021/11/22 02:47:52;;;;;;;2.72;1.25;;;;;;;-1.71;87.07;101077.34;4968058;29;20016;-74
2021/11/22 02:50:19;;;;;;;2.92;0.95;;;;;;;-1.66;87.06;101097.16;4967614;29;20130;-74
2021/11/22 02:52:46;;;;;;;3.17;1.23;;;;;;;-1.68;87.02;101092.78;4967238;29;20027;-74
2021/11/22 02:55:14;;;;;;;3.75;1.52;;;;;;;-1.69;86.85;101094.44;4967644;29;20047;-75
2021/11/22 02:57:40;;;;;;;3.58;0.90;;;;;;;-1.69;86.91;101102.09;4967472;29;20023;-74
2021/11/22 03:00:13;;;;;;;1.40;0.95;;;;;;;-1.79;86.95;101089.69;4967718;29;20031;-74
2021/11/22 03:02:40;;;;;;;3.22;1.20;;;;;;;-1.67;87.03;101109.81;4967597;29;20037;-74
2021/11/22 03:05:06;;;;;;;3.30;1.25;;;;;;;-1.68;86.94;101102.97;4966164;29;20050;-75
2021/11/22 03:07:31;;;;;;;5.15;1.30;;;;;;;-1.65;86.93;101103.13;4966882;28;20027;-75
2021/11/22 03:09:57;;;;;;;2.22;0.90;;;;;;;-1.62;86.85;101108.38;4949809;29;20143;-74
2021/11/22 03:12:22;;;;;;;1.65;1.10;;;;;;;-1.63;86.59;101101.56;4967053;29;20023;-74
2021/11/22 03:14:48;;;;;;;1.85;1.13;;;;;;;-1.61;86.65;101105.03;4967125;29;20485;-74
2021/11/22 03:17:13;;;;;;;4.75;1.40;;;;;;;-1.62;86.53;101101.63;4966781;29;20070;-74
2021/11/22 03:19:39;;;;;;;3.60;1.10;;;;;;;-1.60;86.46;101096.63;4967058;29;20059;-75
2021/11/22 03:22:05;;;;;;;1.25;0.80;;;;;;;-1.68;85.88;101077.50;4966921;29;20073;-75
2021/11/22 03:24:31;;;;;;;1.50;1.00;;;;;;;-1.65;85.50;101081.09;4966962;29;20034;-75
2021/11/22 03:26:57;;;;;;;1.77;1.30;;;;;;;-1.57;85.42;101095.91;4966429;29;20026;-75
2021/11/22 03:29:22;;;;;;;1.83;1.10;;;;;;;-1.55;85.28;101091.75;4980838;28;20031;-74
2021/11/22 03:31:48;;;;;;;3.17;0.80;;;;;;;-1.54;85.52;101096.94;4966863;29;20027;-74
2021/11/22 03:34:14;;;;;;;1.95;1.05;;;;;;;-1.51;85.44;101104.75;4966595;29;20038;-74
2021/11/22 03:36:41;;;;;;;2.25;1.23;;;;;;;-1.59;85.51;101089.84;4966729;29;20035;-74
2021/11/22 03:39:24;;;;;;;2.13;1.10;;;;;;;-1.50;85.99;101115.78;4949241;29;20051;-74
2021/11/22 03:41:51;;;;;;;4.03;1.35;;;;;;;-1.50;86.12;101124.31;4966686;29;20110;-75
2021/11/22 03:44:17;;;;;;;4.30;1.08;;;;;;;-1.52;85.97;101120.78;4966558;29;20034;-74
2021/11/22 03:46:46;;;;;;;3.60;1.33;;;;;;;-1.56;86.06;101118.00;4966585;29;20023;-74
2021/11/22 03:49:11;;;;;;;3.55;1.20;;;;;;;-1.55;86.10;101127.41;4949048;29;20031;-76
2021/11/22 03:51:38;;;;;;;1.92;0.85;;;;;;;-1.61;86.06;101130.50;4966374;29;20027;-74
2021/11/22 03:54:03;;;;;;;4.30;1.35;;;;;;;-1.66;85.82;101131.94;4966148;29;20031;-74
2021/11/22 03:56:29;;;;;;;2.72;1.00;;;;;;;-1.72;85.80;101129.94;4966165;29;20031;-73
2021/11/22 03:58:54;;;;;;;4.00;1.10;;;;;;;-1.73;85.74;101132.41;4966141;29;20031;-74
2021/11/22 04:01:20;;;;;;;3.47;1.40;;;;;;;-1.76;85.70;101131.44;4966186;29;20535;-75
2021/11/22 04:03:46;;;;;;;2.40;1.30;;;;;;;-1.73;85.91;101137.50;4966454;29;20031;-74
2021/11/22 04:06:12;;;;;;;4.75;1.70;;;;;;;-1.70;86.21;101137.66;4966086;29;20519;-73
2021/11/22 04:08:38;;;;;;;2.80;1.00;;;;;;;-1.76;86.35;101121.25;4965826;29;20019;-73
2021/11/22 04:11:03;;;;;;;3.63;1.10;;;;;;;-1.63;86.64;101140.59;4966040;29;20034;-72
2021/11/22 04:13:29;;;;;;;1.60;0.90;;;;;;;-1.62;86.78;101136.41;4965825;29;20170;-73
2021/11/22 04:15:54;;;;;;;1.63;0.80;;;;;;;-1.62;86.82;101131.31;4965939;29;20047;-74
2021/11/22 04:18:20;;;;;;;3.42;1.08;;;;;;;-1.61;87.02;101130.50;4965384;29;20058;-72
2021/11/22 04:20:45;;;;;;;4.00;1.38;;;;;;;-1.59;87.09;101133.13;4965193;28;20051;-72
2021/11/22 04:23:11;;;;;;;3.90;1.33;;;;;;;-1.59;87.08;101128.91;4965534;29;20056;-72
2021/11/22 04:25:37;;;;;;;4.70;1.30;;;;;;;-1.66;87.11;101114.97;4965855;29;20472;-72
2021/11/22 04:28:03;;;;;;;2.55;1.27;;;;;;;-1.61;87.04;101122.84;4965518;29;20019;-74
2021/11/22 04:30:31;;;;;;;3.20;1.02;;;;;;;-1.67;86.94;101117.44;4965567;29;20074;-72
2021/11/22 04:32:57;;;;;;;2.58;1.33;;;;;;;-1.58;87.02;101129.81;4948253;29;20021;-73
2021/11/22 04:35:23;;;;;;;3.65;1.52;;;;;;;-1.60;87.01;101126.28;4965672;29;20023;-73
2021/11/22 04:37:48;;;;;;;3.15;1.00;;;;;;;-1.69;86.90;101111.41;4980212;28;20023;-73
2021/11/22 04:40:16;;;;;;;2.40;1.20;;;;;;;-1.64;86.98;101120.16;4965535;29;20047;-73
2021/11/22 04:42:49;;;;;;;1.35;1.20;;;;;;;-1.66;86.85;101120.06;4948198;29;20038;-73
2021/11/22 04:45:21;;;;;;;4.72;1.17;;;;;;;-1.68;87.03;101119.13;4965507;29;20027;-73
2021/11/22 04:47:48;;;;;;;2.17;1.17;;;;;;;-1.72;87.00;101116.31;4965455;29;20030;-73
2021/11/22 04:50:15;;;;;;;2.25;1.05;;;;;;;-1.70;87.09;101120.72;4965277;29;20074;-73
2021/11/22 04:52:44;;;;;;;2.75;1.20;;;;;;;-1.69;87.22;101121.59;4965090;29;20069;-73
2021/11/22 04:55:10;;;;;;;2.85;1.35;;;;;;;-1.68;87.28;101118.25;4965124;29;20019;-73
2021/11/22 04:57:36;;;;;;;1.83;1.02;;;;;;;-1.69;87.33;101116.50;4964941;29;20126;-73
2021/11/22 05:00:04;;;;;;;8.43;1.20;;;;;;;-1.77;87.36;101096.59;4965095;29;20034;-72
2021/11/22 05:02:29;;;;;;;3.47;1.02;;;;;;;-1.60;87.44;101124.63;4946847;29;20023;-73
2021/11/22 05:04:54;;;;;;;1.30;1.00;;;;;;;-1.67;87.38;101100.50;4964185;29;20074;-68
2021/11/22 05:07:20;;;;;;;2.53;1.08;;;;;;;-1.51;87.19;101132.75;4979173;28;20107;-70
2021/11/22 05:09:46;;;;;;;1.38;0.90;;;;;;;-1.47;87.33;101127.81;4965229;29;20026;-71
2021/11/22 05:12:12;;;;;;;1.63;0.77;;;;;;;-1.44;87.30;101133.97;4965232;29;20054;-72
2021/11/22 05:14:38;;;;;;;2.97;1.10;;;;;;;-1.40;87.26;101142.63;4964966;29;20034;-72
2021/11/22 05:17:03;;;;;;;1.95;1.00;;;;;;;-1.47;87.37;101128.69;4964745;29;20047;-71
2021/11/22 05:19:32;;;;;;;3.80;1.20;;;;;;;-1.46;87.13;101132.09;4964961;29;20395;-72
2021/11/22 05:22:00;;;;;;;6.25;1.80;;;;;;;-1.37;87.07;101153.84;4965044;29;20455;-75
2021/11/22 05:24:26;;;;;;;3.30;1.30;;;;;;;-1.38;86.89;101158.88;4964850;29;20059;-74
2021/11/22 05:26:52;;;;;;;5.55;1.20;;;;;;;-1.52;86.79;101145.41;4947676;29;20030;-72
2021/11/22 05:29:18;;;;;;;1.63;1.05;;;;;;;-1.57;86.46;101137.53;4964751;29;20023;-73
2021/11/22 05:31:43;;;;;;;1.75;1.05;;;;;;;-1.52;86.42;101161.53;4966621;28;20042;-73
2021/11/22 05:34:09;;;;;;;1.52;1.00;;;;;;;-1.63;86.15;101155.03;4968932;29;20031;-74
2021/11/22 05:36:36;;;;;;;2.65;1.48;;;;;;;-1.75;86.06;101139.94;4968832;29;20027;-75
2021/11/22 05:39:04;;;;;;;3.63;1.60;;;;;;;-1.84;85.96;101140.34;4968771;29;20535;-74
2021/11/22 05:41:29;;;;;;;5.18;1.83;;;;;;;-1.76;86.14;101156.88;4968773;29;20039;-75
2021/11/22 05:43:54;;;;;;;3.58;1.58;;;;;;;-1.79;86.22;101156.72;4968949;29;20054;-74
2021/11/22 05:46:20;;;;;;;7.25;1.65;;;;;;;-1.79;86.21;101151.63;4967293;29;20044;-75
2021/11/22 05:48:45;;;;;;;4.38;2.03;;;;;;;-1.81;86.28;101148.16;4968548;29;20027;-75
2021/11/22 05:51:12;;;;;;;3.92;1.42;;;;;;;-1.69;86.30;101157.25;4968706;29;20113;-75
2021/11/22 05:53:38;;;;;;;4.30;1.48;;;;;;;-1.72;86.10;101157.06;4983412;28;20055;-73
2021/11/22 05:56:05;;;;;;;3.83;1.80;;;;;;;-1.70;86.02;101160.56;4951381;29;20023;-74
2021/11/22 05:58:31;;;;;;;7.43;1.73;;;;;;;-1.70;86.25;101161.44;4968334;29;20093;-74
2021/11/22 06:01:03;;;;;;;3.42;1.75;;;;;;;-1.66;86.38;101158.25;4968733;29;20257;-73
2021/11/22 06:03:29;;;;;;;3.67;1.95;;;;;;;-1.63;86.27;101157.56;4951242;29;20031;-73
2021/11/22 06:05:55;;;;;;;5.57;1.67;;;;;;;-1.60;86.34;101162.84;4968371;29;20061;-75
2021/11/22 06:08:21;;;;;;;5.28;1.73;;;;;;;-1.60;86.29;101167.91;4968531;29;20464;-74
2021/11/22 06:10:49;;;;;;;4.82;1.67;;;;;;;-1.60;86.29;101162.84;4968301;29;20023;-74
2021/11/22 06:13:15;;;;;;;5.50;1.75;;;;;;;-1.59;86.30;101167.13;4968247;29;20031;-75
2021/11/22 06:15:42;;;;;;;3.40;1.30;;;;;;;-1.59;86.44;101166.22;4967937;29;20024;-75
2021/11/22 06:18:07;;;;;;;3.20;1.50;;;;;;;-1.58;86.39;101165.47;4946966;29;20126;-75
2021/11/22 06:20:33;;;;;;;3.03;1.40;;;;;;;-1.51;86.75;101157.34;4948937;29;20126;-74
2021/11/22 06:22:58;;;;;;;2.95;1.35;;;;;;;-1.40;86.54;101161.34;4948850;29;20028;-75
2021/11/22 06:25:24;;;;;;;4.82;1.70;;;;;;;-1.36;86.44;101170.03;4948940;29;20095;-76
2021/11/22 06:27:50;;;;;;;3.10;1.35;;;;;;;-1.37;86.31;101171.69;4948773;29;20087;-74
2021/11/22 06:30:15;;;;;;;2.50;1.30;;;;;;;-1.40;86.38;101170.63;4948724;29;20038;-74
2021/11/22 06:32:40;;;;;;;4.05;1.70;;;;;;;-1.37;86.36;101183.53;4948807;29;20032;-73
2021/11/22 06:35:06;;;;;;;6.00;1.73;;;;;;;-1.36;86.32;101185.31;4948965;29;20028;-74
2021/11/22 06:37:33;;;;;;;2.30;1.48;;;;;;;-1.37;86.33;101175.91;4948635;29;20027;-74
2021/11/22 06:39:59;;;;;;;2.47;1.00;;;;;;;-1.38;86.34;101181.78;4948415;29;20027;-73
2021/11/22 06:42:25;;;;;;;4.47;1.40;;;;;;;-1.42;86.39;101157.81;4948108;29;20543;-74
2021/11/22 06:44:50;;;;;;;2.80;1.20;;;;;;;-1.29;86.27;101173.75;4948438;29;20345;-73
2021/11/22 06:47:16;;;;;;;2.42;1.02;;;;;;;-1.27;86.29;101180.69;4948595;29;20024;-74
2021/11/22 06:49:42;;;;;;;4.32;1.60;;;;;;;-1.33;86.27;101175.28;4948483;29;20032;-73
2021/11/22 06:52:07;;;;;;;3.35;1.38;;;;;;;-1.25;86.25;101196.06;4948501;29;20035;-73
2021/11/22 06:54:33;;;;;;;2.88;1.00;;;;;;;-1.39;86.06;101167.31;4947131;29;20038;-74
2021/11/22 06:57:00;;;;;;;5.97;2.22;;;;;;;-1.22;86.20;101183.47;4948310;29;20043;-73
2021/11/22 06:59:27;;;;;;;5.57;1.10;;;;;;;-1.15;86.37;101187.25;4948299;29;20035;-74
2021/11/22 07:01:53;;;;;;;1.17;0.80;;;;;;;-1.18;86.54;101157.34;4948450;29;20023;-73
2021/11/22 07:04:18;;;;;;;2.15;0.90;;;;;;;-0.90;86.51;101184.28;4948654;29;20039;-74
2021/11/22 07:06:44;;;;;;;1.80;1.00;;;;;;;-0.76;86.50;101186.63;4963095;28;20038;-74
2021/11/22 07:09:09;;;;;;;2.40;1.02;;;;;;;-0.68;86.34;101180.25;4948209;29;20021;-74
2021/11/22 07:11:35;;;;;;;2.90;0.82;;;;;;;-0.60;86.19;101195.06;4948043;29;20058;-74
2021/11/22 07:14:02;;;;;;;3.45;0.90;;;;;;;-0.63;86.08;101188.13;4948222;29;20079;-74
2021/11/22 07:16:29;;;;;;;2.47;1.20;;;;;;;-0.61;85.70;101193.31;4980262;28;20023;-74
2021/11/22 07:18:54;;;;;;;1.85;1.10;;;;;;;-0.70;85.33;101196.28;4965670;29;20028;-74
2021/11/22 07:21:20;;;;;;;2.80;1.05;;;;;;;-0.76;85.42;101199.41;4965798;29;20175;-74
2021/11/22 07:23:45;;;;;;;4.68;1.20;;;;;;;-0.79;85.52;101195.03;4966761;29;20023;-74
2021/11/22 07:26:11;;;;;;;2.28;1.20;;;;;;;-0.82;85.87;101191.44;4966808;29;20053;-75
2021/11/22 07:28:36;;;;;;;2.40;1.30;;;;;;;-0.76;86.02;101197.72;4965986;29;20027;-74
2021/11/22 07:31:02;;;;;;;4.03;1.15;;;;;;;-0.77;85.58;101183.22;4966022;29;20086;-74
2021/11/22 07:33:27;;;;;;;3.05;0.82;;;;;;;-0.64;85.68;101199.16;4967159;29;20070;-75
2021/11/22 07:35:52;;;;;;;1.65;0.93;;;;;;;-0.56;85.35;101202.09;4967241;29;20112;-74
2021/11/22 07:38:18;;;;;;;2.95;1.33;;;;;;;-0.52;85.53;101198.88;4966691;29;20023;-75
2021/11/22 07:40:45;;;;;;;3.60;1.23;;;;;;;-0.45;85.53;101202.63;4966998;29;20431;-74
2021/11/22 07:43:10;;;;;;;2.97;1.30;;;;;;;-0.35;85.47;101199.69;4966742;29;20067;-74
2021/11/22 07:45:36;;;;;;;3.17;1.13;;;;;;;-0.21;85.71;101196.97;4981463;28;20035;-73
2021/11/22 07:48:02;;;;;;;3.25;0.93;;;;;;;-0.01;86.06;101196.25;4966826;29;20130;-74
2021/11/22 07:50:29;;;;;;;2.90;1.38;;;;;;;0.45;86.14;101191.53;4966789;29;20027;-74
2021/11/22 07:52:54;;;;;;;2.13;1.17;;;;;;;1.00;85.57;101196.50;4966656;29;20023;-74
2021/11/22 07:55:22;;;;;;;2.03;1.00;;;;;;;1.38;83.85;101190.38;4965612;28;20027;-73
2021/11/22 07:57:49;;;;;;;2.92;1.13;;;;;;;1.58;82.88;101189.53;4966327;29;20030;-74
2021/11/22 08:00:16;;;;;;;4.35;2.13;;;;;;;1.75;82.54;101193.59;4966651;29;20050;-74
2021/11/22 08:02:41;;;;;;;4.28;1.50;;;;;;;1.60;82.11;101174.25;4966512;29;20027;-74
2021/11/22 08:05:08;;;;;;;7.57;1.70;;;;;;;1.78;82.38;101196.28;4966554;29;20055;-74
2021/11/22 08:07:37;;;;;;;3.80;1.35;;;;;;;1.84;81.62;101194.84;4966130;29;20078;-74
2021/11/22 08:10:15;;;;;;;3.88;1.25;;;;;;;1.69;81.36;101199.34;4966411;29;20027;-74
2021/11/22 08:12:41;;;;;;;2.05;1.10;;;;;;;1.49;81.26;101212.19;4966262;29;20024;-74
2021/11/22 08:15:09;;;;;;;3.10;1.42;;;;;;;1.22;81.81;101198.31;4966379;29;20466;-74
2021/11/22 08:17:39;;;;;;;3.90;1.73;;;;;;;1.23;82.21;101217.09;4965754;29;20039;-74
2021/11/22 08:20:06;;;;;;;2.60;1.20;;;;;;;1.15;82.42;101214.19;4966165;29;20031;-74
2021/11/22 08:22:32;;;;;;;7.22;1.42;;;;;;;1.08;82.40;101209.63;4966101;29;20042;-74
2021/11/22 08:24:57;;;;;;;2.25;0.77;;;;;;;1.02;82.48;101202.56;4965877;29;20031;-74
2021/11/22 08:27:25;;;;;;;1.85;0.80;;;;;;;1.01;82.71;101189.72;4966054;29;20110;-74
2021/11/22 08:29:51;;;;;;;2.90;1.40;;;;;;;1.10;82.67;101200.34;4966101;29;20138;-74
2021/11/22 08:32:18;;;;;;;4.05;1.65;;;;;;;1.10;82.70;101211.44;4966181;29;20031;-74
2021/11/22 08:34:43;;;;;;;3.70;1.20;;;;;;;1.09;82.66;101206.25;4966104;29;20031;-74
2021/11/22 08:37:09;;;;;;;1.92;1.02;;;;;;;1.10;82.97;101203.75;4966059;29;20054;-74
2021/11/22 08:39:34;;;;;;;3.28;0.90;;;;;;;1.02;82.79;101177.00;4965872;29;20032;-74
2021/11/22 08:42:00;;;;;;;2.45;1.05;;;;;;;1.08;82.96;101184.03;4965703;29;20029;-74
2021/11/22 08:44:25;;;;;;;2.28;1.58;;;;;;;1.23;82.91;101206.88;4965792;29;20038;-73
2021/11/22 08:46:51;;;;;;;1.50;1.00;;;;;;;1.47;83.28;101203.59;4980530;28;20085;-74
2021/11/22 08:49:17;;;;;;;2.30;1.20;;;;;;;1.67;83.09;101199.31;4965607;29;20019;-74
2021/11/22 08:51:43;;;;;;;6.93;1.42;;;;;;;1.87;82.72;101200.94;4965883;29;20042;-75
2021/11/22 08:54:09;;;;;;;4.32;1.10;;;;;;;2.47;82.74;101195.56;4965473;29;20079;-73
2021/11/22 08:56:34;;;;;;;3.08;1.33;;;;;;;2.75;81.03;101198.25;4965557;29;20464;-73
2021/11/22 08:59:01;;;;;;;4.70;1.33;;;;;;;2.62;79.42;101206.34;4965486;29;20050;-74
2021/11/22 09:01:28;;;;;;;4.13;1.20;;;;;;;2.43;78.35;101186.00;4965913;29;20042;-74
2021/11/22 09:03:55;;;;;;;1.95;0.80;;;;;;;2.40;78.18;101193.56;4965668;29;20106;-73
2021/11/22 09:06:21;;;;;;;2.08;1.00;;;;;;;2.22;77.25;101186.06;4965675;28;20264;-73
2021/11/22 09:08:48;;;;;;;1.83;0.90;;;;;;;2.24;76.99;101179.31;4966413;29;20027;-72
2021/11/22 09:11:15;;;;;;;4.05;1.10;;;;;;;2.22;77.02;101180.94;4965708;29;20051;-72
2021/11/22 09:13:40;;;;;;;3.80;0.90;;;;;;;2.40;77.40;101178.19;4965591;29;20027;-72
2021/11/22 09:16:06;;;;;;;2.72;0.80;;;;;;;3.12;78.18;101162.78;4965633;29;20034;-72
2021/11/22 09:18:32;;;;;;;1.27;0.88;;;;;;;4.08;76.22;101169.28;4965229;29;20043;-73
2021/11/22 09:20:57;;;;;;;2.83;1.10;;;;;;;4.13;75.06;101151.44;4965072;29;20055;-72
2021/11/22 09:23:24;;;;;;;2.22;1.02;;;;;;;3.91;75.08;101161.06;4965264;29;20086;-71
2021/11/22 09:25:51;;;;;;;3.63;1.15;;;;;;;3.69;76.08;101170.66;4965334;29;20031;-72
2021/11/22 09:28:17;;;;;;;3.35;1.20;;;;;;;3.38;76.54;101180.78;4979853;28;20110;-73
2021/11/22 09:30:42;;;;;;;4.18;1.83;;;;;;;3.12;76.67;101177.31;4965246;29;20102;-71
2021/11/22 09:33:10;;;;;;;3.53;1.42;;;;;;;2.91;77.55;101168.03;4965069;29;20026;-71
2021/11/22 09:35:36;;;;;;;2.53;1.10;;;;;;;2.88;79.10;101176.50;4965160;29;20153;-72
2021/11/22 09:38:02;;;;;;;8.38;1.27;;;;;;;3.74;79.44;101178.53;4964897;29;20028;-74
2021/11/22 09:40:28;;;;;;;7.25;1.40;;;;;;;4.05;77.08;101156.34;4947774;29;20039;-72
2021/11/22 09:42:55;;;;;;;5.72;1.50;;;;;;;3.99;76.92;101158.72;4964979;29;20027;-72
2021/11/22 09:45:21;;;;;;;2.17;1.15;;;;;;;4.10;76.91;101149.66;4964944;29;20100;-75
2021/11/22 09:47:47;;;;;;;5.63;1.55;;;;;;;4.09;76.22;101141.06;4964922;29;20122;-73
2021/11/22 09:50:12;;;;;;;2.45;1.27;;;;;;;4.00;75.63;101134.78;4964932;29;20249;-73
2021/11/22 09:52:38;;;;;;;4.35;2.10;;;;;;;3.68;75.61;101132.94;4964838;29;20186;-72
2021/11/22 09:55:05;;;;;;;3.00;1.48;;;;;;;3.31;76.21;101132.63;4947462;29;20149;-72
2021/11/22 09:57:30;;;;;;;6.63;1.67;;;;;;;3.08;76.92;101135.31;4964693;29;20035;-72
2021/11/22 09:59:56;;;;;;;3.20;1.30;;;;;;;2.83;77.25;101124.16;4964973;29;20033;-73
2021/11/22 10:02:46;;;;;;;4.32;1.20;;;;;;;2.68;76.79;101122.84;4965070;29;20032;-73
2021/11/22 10:05:30;;;;;;;5.95;1.38;;;;;;;2.69;77.90;101121.13;4965066;29;20031;-72
2021/11/22 10:08:15;;;;;;;3.72;1.40;;;;;;;2.78;78.63;101110.34;4947498;29;20031;-73
2021/11/22 10:10:49;;;;;;;6.03;1.63;;;;;;;2.78;77.52;101097.50;4963545;29;20042;-72
2021/11/22 10:13:38;;;;;;;4.88;1.48;;;;;;;2.77;77.94;101101.75;4964769;29;20070;-73
2021/11/22 10:16:15;;;;;;;3.55;1.90;;;;;;;2.69;78.80;101090.34;4965051;29;20027;-73
2021/11/22 10:18:48;;;;;;;3.92;1.50;;;;;;;2.62;79.34;101091.81;4964620;28;20531;-72
2021/11/22 10:21:16;;;;;;;6.47;1.85;;;;;;;2.59;79.34;101090.03;4968162;29;20054;-73
2021/11/22 10:23:43;;;;;;;3.65;1.50;;;;;;;2.55;79.94;101083.06;4968290;29;20081;-74
2021/11/22 10:26:11;;;;;;;5.50;1.73;;;;;;;2.57;80.09;101080.56;4968433;29;20030;-73
2021/11/22 10:28:41;;;;;;;7.50;1.85;;;;;;;2.57;80.57;101072.88;4968180;29;20023;-73
2021/11/22 10:31:12;;;;;;;6.18;1.70;;;;;;;2.65;80.80;101070.56;4968072;29;20397;-72
2021/11/22 10:33:38;;;;;;;6.47;1.77;;;;;;;2.66;80.77;101075.75;4950776;29;20027;-73
2021/11/22 10:36:08;;;;;;;4.38;1.70;;;;;;;2.68;81.08;101074.13;4968075;29;20034;-73
2021/11/22 10:38:40;;;;;;;5.15;1.90;;;;;;;2.57;81.25;101052.34;4966488;29;20086;-73
2021/11/22 10:41:12;;;;;;;2.80;1.75;;;;;;;2.77;81.85;101068.41;4967948;29;20050;-73
2021/11/22 10:43:39;;;;;;;3.75;1.75;;;;;;;2.85;81.86;101067.00;4967853;29;20031;-73
2021/11/22 10:46:08;;;;;;;5.68;1.55;;;;;;;2.88;79.43;101066.22;4968236;29;20031;-73
2021/11/22 10:48:34;;;;;;;5.10;1.50;;;;;;;2.94;78.37;101051.03;4967735;29;20019;-73
2021/11/22 10:51:07;;;;;;;5.43;1.52;;;;;;;3.09;77.60;101060.94;4950475;29;20023;-73
2021/11/22 10:53:43;;;;;;;5.45;1.52;;;;;;;3.21;77.24;101055.31;4967987;29;20031;-73
2021/11/22 10:56:16;;;;;;;6.68;1.50;;;;;;;3.31;75.83;101059.06;4967771;29;20062;-73
2021/11/22 10:58:46;;;;;;;5.05;1.00;;;;;;;3.49;74.43;101057.03;4967765;29;20344;-73
2021/11/22 11:01:21;;;;;;;3.63;1.25;;;;;;;3.63;72.82;101065.16;4967897;29;20027;-73
2021/11/22 11:04:13;;;;;;;4.50;1.20;;;;;;;3.68;72.17;101043.94;4967760;29;20027;-74
2021/11/22 11:06:48;;;;;;;5.00;1.13;;;;;;;3.90;72.71;101052.28;4967713;29;20019;-73
2021/11/22 11:09:28;;;;;;;5.25;1.13;;;;;;;4.04;72.62;101054.41;4967256;29;20047;-73
2021/11/22 11:12:15;;;;;;;5.28;1.38;;;;;;;4.09;70.10;101038.28;4967308;29;20030;-74
2021/11/22 11:14:47;;;;;;;1.73;1.00;;;;;;;4.18;70.84;101040.25;4949978;29;20083;-74
2021/11/22 11:17:21;;;;;;;1.98;0.93;;;;;;;4.26;70.60;101039.59;4967115;29;20047;-74
2021/11/22 11:19:49;;;;;;;3.17;1.05;;;;;;;4.29;71.32;101029.38;4967222;29;20038;-72
2021/11/22 11:22:15;;;;;;;4.25;0.90;;;;;;;4.35;68.83;101037.25;4967220;29;20027;-73
2021/11/22 11:24:41;;;;;;;1.17;0.70;;;;;;;4.44;69.36;101037.50;4967110;29;20054;-73
2021/11/22 11:27:07;;;;;;;2.90;0.70;;;;;;;4.49;68.90;101022.19;4966545;29;20054;-72